createdAt,value
2023-01-29T00:02:18.512Z,98858.10
2023-01-29T00:05:28.450Z,98861.14
2023-01-29T00:08:30.127Z,98863.86
2023-01-29T00:11:31.559Z,98865.41
2023-01-29T00:14:32.897Z,98875.80
2023-01-29T00:17:34.762Z,98876.75
2023-01-29T00:20:36.089Z,98878.91
2023-01-29T00:23:37.779Z,98879.29
2023-01-29T00:26:39.502Z,98881.41
2023-01-29T00:29:41.202Z,98882.57
2023-01-29T00:32:42.694Z,98885.27
2023-01-29T00:35:44.624Z,98889.67
2023-01-29T00:38:53.900Z,98887.68
2023-01-29T00:42:13.709Z,98882.66
2023-01-29T00:45:17.999Z,98887.89
2023-01-29T00:48:20.482Z,98890.94
2023-01-29T00:51:21.876Z,98886.45
2023-01-29T00:54:23.271Z,98891.40
2023-01-29T00:57:26.968Z,98895.52
2023-01-29T01:00:28.750Z,98893.57
2023-01-29T01:03:34.782Z,98894.41
2023-01-29T01:06:38.121Z,98896.14
2023-01-29T01:09:58.321Z,98901.11
2023-01-29T01:13:02.342Z,98905.85
2023-01-29T01:16:12.962Z,98903.50
2023-01-29T01:19:15.706Z,98901.38
2023-01-29T01:22:17.393Z,98901.67
2023-01-29T01:25:19.394Z,98896.77
2023-01-29T01:28:20.827Z,98893.15
2023-01-29T01:31:22.421Z,98899.88
2023-01-29T01:34:26.281Z,98908.56
2023-01-29T01:37:27.692Z,98909.85
2023-01-29T01:40:29.701Z,98905.35
2023-01-29T01:43:49.147Z,98901.37
2023-01-29T01:46:51.395Z,98900.33
2023-01-29T01:49:55.454Z,98904.15
2023-01-29T01:53:02.290Z,98911.10
2023-01-29T01:56:13.927Z,98918.30
2023-01-29T01:59:18.960Z,98910.93
2023-01-29T02:02:39.537Z,98916.58
2023-01-29T02:06:00.417Z,98919.42
2023-01-29T02:09:26.296Z,98921.70
2023-01-29T02:12:30.606Z,98922.11
2023-01-29T02:15:33.891Z,98926.34
2023-01-29T02:18:37.440Z,98935.34
2023-01-29T02:21:43.657Z,98945.21
2023-01-29T02:24:48.147Z,98938.15
2023-01-29T02:28:14.598Z,98938.20
2023-01-29T02:31:24.829Z,98934.23
2023-01-29T02:34:51.235Z,98930.62
2023-01-29T02:38:08.247Z,98944.55
2023-01-29T02:41:09.652Z,98943.71
2023-01-29T02:44:27.268Z,98944.98
2023-01-29T02:47:34.349Z,98938.55
2023-01-29T02:50:35.666Z,98939.10
2023-01-29T02:54:12.190Z,98942.86
2023-01-29T02:57:22.327Z,98951.95
2023-01-29T03:00:29.461Z,98956.16
2023-01-29T03:03:39.032Z,98955.48
2023-01-29T03:06:51.375Z,98955.18
2023-01-29T03:09:54.330Z,98948.93
2023-01-29T03:13:19.647Z,98954.09
2023-01-29T03:16:42.026Z,98955.58
2023-01-29T03:19:46.568Z,98959.23
2023-01-29T03:23:05.213Z,98960.68
2023-01-29T03:26:25.453Z,98958.27
2023-01-29T03:29:49.869Z,98960.86
2023-01-29T03:32:55.319Z,98950.03
2023-01-29T03:36:08.455Z,98949.73
2023-01-29T03:39:11.350Z,98966.80
2023-01-29T03:42:21.342Z,98968.50
2023-01-29T03:45:31.341Z,98962.83
2023-01-29T03:49:18.254Z,98960.78
2023-01-29T03:52:38.649Z,98961.98
2023-01-29T03:55:58.988Z,98971.05
2023-01-29T03:59:11.363Z,98976.52
2023-01-29T04:02:42.059Z,98971.66
2023-01-29T04:06:04.747Z,98967.91
2023-01-29T04:09:16.199Z,98962.98
2023-01-29T04:12:27.499Z,98959.96
2023-01-29T04:15:35.804Z,98952.33
2023-01-29T04:18:37.752Z,98945.15
2023-01-29T04:21:48.321Z,98942.19
2023-01-29T04:24:50.699Z,98947.41
2023-01-29T04:28:08.063Z,98948.83
2023-01-29T04:31:12.039Z,98945.23
2023-01-29T04:34:28.632Z,98937.52
2023-01-29T04:37:30.375Z,98935.55
2023-01-29T04:40:44.408Z,98928.87
2023-01-29T04:44:18.214Z,98927.30
2023-01-29T04:47:53.411Z,98930.34
2023-01-29T04:51:20.411Z,98930.52
2023-01-29T04:54:30.915Z,98917.42
2023-01-29T04:57:50.173Z,98920.59
2023-01-29T05:00:53.615Z,98922.25
2023-01-29T05:03:56.752Z,98922.08
2023-01-29T05:07:04.026Z,98921.95
2023-01-29T05:10:07.583Z,98924.60
2023-01-29T05:13:12.880Z,98924.61
2023-01-29T05:16:27.246Z,98928.04
2023-01-29T05:19:28.631Z,98930.83
2023-01-29T05:22:30.335Z,98926.64
2023-01-29T05:25:32.761Z,98933.56
2023-01-29T05:28:34.138Z,98928.35
2023-01-29T05:31:35.550Z,98934.86
2023-01-29T05:34:36.950Z,98945.73
2023-01-29T05:37:38.377Z,98952.70
2023-01-29T05:40:40.211Z,98953.06
2023-01-29T05:43:41.539Z,98955.58
2023-01-29T05:46:43.304Z,98959.38
2023-01-29T05:49:44.753Z,98965.06
2023-01-29T05:52:46.099Z,98970.11
2023-01-29T05:55:47.932Z,98970.56
2023-01-29T05:58:49.337Z,98975.34
2023-01-29T06:01:50.729Z,98980.45
2023-01-29T06:04:52.150Z,98983.70
2023-01-29T06:07:53.520Z,98984.30
2023-01-29T06:10:54.945Z,98984.14
2023-01-29T06:13:56.359Z,98982.95
2023-01-29T06:16:57.806Z,98977.06
2023-01-29T06:19:59.163Z,98977.23
2023-01-29T06:23:00.573Z,98977.89
2023-01-29T06:26:11.655Z,98974.67
2023-01-29T06:29:13.221Z,98977.61
2023-01-29T06:32:14.554Z,98971.75
2023-01-29T06:35:16.013Z,98970.27
2023-01-29T06:38:17.397Z,98964.65
2023-01-29T06:41:22.081Z,98954.18
2023-01-29T06:44:23.495Z,98951.77
2023-01-29T06:47:26.670Z,98956.75
2023-01-29T06:50:27.998Z,98956.11
2023-01-29T06:53:29.844Z,98956.34
2023-01-29T06:56:31.254Z,98957.01
2023-01-29T06:59:32.722Z,98959.01
2023-01-29T07:02:34.149Z,98961.84
2023-01-29T07:05:35.656Z,98965.85
2023-01-29T07:08:38.735Z,98967.73
2023-01-29T07:11:40.099Z,98970.22
2023-01-29T07:14:41.427Z,98968.75
2023-01-29T07:17:42.793Z,98977.25
2023-01-29T07:20:44.162Z,98975.75
2023-01-29T07:23:45.520Z,98980.55
2023-01-29T07:26:46.869Z,98982.73
2023-01-29T07:29:48.309Z,98986.09
2023-01-29T07:32:49.669Z,98986.16
2023-01-29T07:35:52.017Z,98978.34
2023-01-29T07:38:53.388Z,98976.68
2023-01-29T07:41:54.826Z,98976.38
2023-01-29T07:44:57.708Z,98980.46
2023-01-29T07:47:59.103Z,98985.21
2023-01-29T07:51:00.607Z,98984.02
2023-01-29T07:54:02.065Z,98976.84
2023-01-29T07:57:03.444Z,98975.96
2023-01-29T08:00:05.188Z,98972.09
2023-01-29T08:03:16.450Z,98974.20
2023-01-29T08:06:18.691Z,98967.95
2023-01-29T08:09:20.056Z,98973.94
2023-01-29T08:12:21.489Z,98979.82
2023-01-29T08:15:23.526Z,98983.11
2023-01-29T08:18:24.985Z,98987.55
2023-01-29T08:21:26.355Z,98990.09
2023-01-29T08:24:36.089Z,98994.19
2023-01-29T08:27:49.236Z,98987.71
2023-01-29T08:30:50.787Z,98987.39
2023-01-29T08:33:56.580Z,98985.25
2023-01-29T08:36:58.195Z,98988.61
2023-01-29T08:39:59.578Z,98989.96
2023-01-29T08:43:04.151Z,98989.04
2023-01-29T08:46:07.911Z,98988.75
2023-01-29T08:49:09.413Z,98987.27
2023-01-29T08:52:10.792Z,98984.04
2023-01-29T08:55:13.089Z,98986.44
2023-01-29T08:58:14.487Z,98991.02
2023-01-29T09:01:16.079Z,98992.23
2023-01-29T09:04:17.525Z,98991.08
2023-01-29T09:07:21.146Z,98987.28
2023-01-29T09:10:22.621Z,98994.17
2023-01-29T09:13:23.965Z,98998.25
2023-01-29T09:16:25.458Z,98998.23
2023-01-29T09:19:26.935Z,99008.28
2023-01-29T09:22:28.348Z,99012.48
2023-01-29T09:25:29.731Z,99013.94
2023-01-29T09:28:31.108Z,99025.38
2023-01-29T09:31:33.001Z,99030.06
2023-01-29T09:34:34.772Z,99037.79
2023-01-29T09:37:36.269Z,99033.96
2023-01-29T09:40:47.768Z,99036.97
2023-01-29T09:43:54.768Z,99030.23
2023-01-29T09:46:59.487Z,99031.52
2023-01-29T09:50:06.382Z,99035.80
2023-01-29T09:53:18.571Z,99033.20
2023-01-29T09:56:22.995Z,99033.85
2023-01-29T09:59:27.283Z,99034.16
2023-01-29T10:02:47.611Z,99034.88
2023-01-29T10:06:08.638Z,99024.53
2023-01-29T10:09:35.090Z,99019.60
2023-01-29T10:13:02.221Z,99010.45
2023-01-29T10:16:22.277Z,99008.08
2023-01-29T10:19:51.873Z,99012.89
2023-01-29T10:23:20.990Z,99016.81
2023-01-29T10:26:25.757Z,99015.23
2023-01-29T10:29:30.251Z,99014.05
2023-01-29T10:32:31.907Z,99006.65
2023-01-29T10:35:38.745Z,99002.98
2023-01-29T10:38:44.958Z,99004.32
2023-01-29T10:42:02.952Z,99004.87
2023-01-29T10:45:09.875Z,98996.40
2023-01-29T10:48:17.521Z,98989.35
2023-01-29T10:51:35.999Z,98990.44
2023-01-29T10:54:56.074Z,98990.71
2023-01-29T10:58:07.681Z,98985.05
2023-01-29T11:01:10.313Z,98972.09
2023-01-29T11:04:13.755Z,98965.27
2023-01-29T11:07:17.760Z,98962.62
2023-01-29T11:10:22.771Z,98963.42
2023-01-29T11:13:30.588Z,98960.65
2023-01-29T11:16:43.728Z,98954.27
2023-01-29T11:19:47.890Z,98941.17
2023-01-29T11:22:54.997Z,98936.94
2023-01-29T11:25:58.521Z,98938.66
2023-01-29T11:28:59.991Z,98935.48
2023-01-29T11:32:05.802Z,98935.35
2023-01-29T11:35:13.283Z,98932.78
2023-01-29T11:38:28.227Z,98927.29
2023-01-29T11:41:29.982Z,98927.36
2023-01-29T11:44:35.793Z,98921.17
2023-01-29T11:47:38.176Z,98918.44
2023-01-29T11:50:40.304Z,98915.42
2023-01-29T11:53:49.003Z,98914.66
2023-01-29T11:56:51.127Z,98909.15
2023-01-29T11:59:54.829Z,98906.75
2023-01-29T12:02:58.974Z,98900.59
2023-01-29T12:06:08.370Z,98897.03
2023-01-29T12:09:16.980Z,98893.64
2023-01-29T12:12:21.654Z,98888.58
2023-01-29T12:15:26.185Z,98879.10
2023-01-29T12:18:27.510Z,98875.96
2023-01-29T12:21:50.379Z,98872.52
2023-01-29T12:25:00.804Z,98856.95
2023-01-29T12:28:24.193Z,98847.61
2023-01-29T12:31:31.414Z,98844.09
2023-01-29T12:34:48.432Z,98837.48
2023-01-29T12:38:05.244Z,98837.66
2023-01-29T12:41:27.901Z,98835.14
2023-01-29T12:44:56.756Z,98828.94
2023-01-29T12:48:07.184Z,98822.40
2023-01-29T12:51:17.081Z,98825.98
2023-01-29T12:54:27.063Z,98826.96
2023-01-29T12:57:34.292Z,98831.24
2023-01-29T13:00:40.009Z,98828.46
2023-01-29T13:04:02.977Z,98826.92
2023-01-29T13:07:32.582Z,98822.58
2023-01-29T13:10:42.489Z,98813.58
2023-01-29T13:13:54.344Z,98822.59
2023-01-29T13:17:07.682Z,98832.74
2023-01-29T13:20:23.970Z,98827.61
2023-01-29T13:23:33.619Z,98807.39
2023-01-29T13:26:35.843Z,98808.11
2023-01-29T13:29:37.391Z,98805.23
2023-01-29T13:32:38.971Z,98799.23
2023-01-29T13:35:42.897Z,98789.18
2023-01-29T13:38:44.503Z,98795.66
2023-01-29T13:41:46.181Z,98799.70
2023-01-29T13:44:54.754Z,98804.50
2023-01-29T13:48:27.035Z,98793.84
2023-01-29T13:51:35.870Z,98788.99
2023-01-29T13:54:37.318Z,98783.27
2023-01-29T13:57:38.745Z,98786.58
2023-01-29T14:00:40.171Z,98789.48
2023-01-29T14:04:03.326Z,98794.60
2023-01-29T14:07:38.742Z,98793.89
2023-01-29T14:10:41.985Z,98788.02
2023-01-29T14:13:48.433Z,98789.94
2023-01-29T14:16:50.067Z,98791.98
2023-01-29T14:19:57.340Z,98793.79
2023-01-29T14:23:00.460Z,98802.74
2023-01-29T14:26:05.202Z,98803.46
2023-01-29T14:29:16.566Z,98806.73
2023-01-29T14:32:24.356Z,98808.94
2023-01-29T14:35:29.944Z,98806.31
2023-01-29T14:38:32.566Z,98805.17
2023-01-29T14:41:35.589Z,98805.98
2023-01-29T14:44:47.882Z,98808.80
2023-01-29T14:47:49.770Z,98810.91
2023-01-29T14:50:55.282Z,98810.13
2023-01-29T14:54:27.474Z,98808.31
2023-01-29T14:57:30.480Z,98808.53
2023-01-29T15:00:43.003Z,98805.86
2023-01-29T15:03:49.173Z,98802.05
2023-01-29T15:07:03.999Z,98797.45
2023-01-29T15:10:22.822Z,98796.17
2023-01-29T15:13:37.454Z,98802.11
2023-01-29T15:17:16.417Z,98799.75
2023-01-29T15:20:33.103Z,98798.93
2023-01-29T15:23:34.535Z,98797.23
2023-01-29T15:26:36.311Z,98799.75
2023-01-29T15:29:38.985Z,98802.27
2023-01-29T15:32:40.528Z,98806.52
2023-01-29T15:35:42.709Z,98812.56
2023-01-29T15:38:44.196Z,98814.36
2023-01-29T15:41:45.896Z,98820.29
2023-01-29T15:44:47.601Z,98820.36
2023-01-29T15:47:50.003Z,98816.11
2023-01-29T15:50:54.533Z,98820.05
2023-01-29T15:53:57.791Z,98818.34
2023-01-29T15:57:00.842Z,98823.52
2023-01-29T16:00:04.371Z,98825.41
2023-01-29T16:03:14.928Z,98823.40
2023-01-29T16:06:16.691Z,98822.69
2023-01-29T16:09:22.969Z,98818.24
2023-01-29T16:12:24.791Z,98816.41
2023-01-29T16:15:37.849Z,98818.48
2023-01-29T16:18:54.224Z,98824.58
2023-01-29T16:22:03.385Z,98827.80
2023-01-29T16:25:10.627Z,98823.17
2023-01-29T16:28:12.276Z,98818.02
2023-01-29T16:31:21.902Z,98821.77
2023-01-29T16:34:32.222Z,98832.05
2023-01-29T16:37:35.706Z,98830.46
2023-01-29T16:40:38.183Z,98826.36
2023-01-29T16:43:47.518Z,98821.14
2023-01-29T16:46:52.196Z,98812.80
2023-01-29T16:50:14.786Z,98807.87
2023-01-29T16:53:22.616Z,98808.22
2023-01-29T16:56:27.314Z,98807.73
2023-01-29T16:59:32.562Z,98805.27
2023-01-29T17:02:38.682Z,98804.33
2023-01-29T17:05:40.696Z,98806.30
2023-01-29T17:08:42.726Z,98807.08
2023-01-29T17:11:44.183Z,98812.60
2023-01-29T17:14:58.254Z,98815.96
2023-01-29T17:18:00.165Z,98823.16
2023-01-29T17:21:01.554Z,98824.42
2023-01-29T17:24:03.148Z,98825.58
2023-01-29T17:27:04.561Z,98822.70
2023-01-29T17:30:07.227Z,98820.81
2023-01-29T17:33:14.093Z,98817.16
2023-01-29T17:36:17.058Z,98809.95
2023-01-29T17:39:23.503Z,98812.08
2023-01-29T17:42:25.602Z,98806.91
2023-01-29T17:45:27.008Z,98802.25
2023-01-29T17:48:29.600Z,98802.14
2023-01-29T17:51:31.007Z,98799.54
2023-01-29T17:54:32.623Z,98798.59
2023-01-29T17:57:33.990Z,98798.77
2023-01-29T18:00:35.402Z,98799.00
2023-01-29T18:03:37.013Z,98801.27
2023-01-29T18:06:40.516Z,98805.25
2023-01-29T18:09:43.536Z,98810.33
2023-01-29T18:12:45.189Z,98809.39
2023-01-29T18:15:46.649Z,98807.42
2023-01-29T18:18:49.530Z,98807.00
2023-01-29T18:21:51.778Z,98804.66
2023-01-29T18:24:53.267Z,98801.67
2023-01-29T18:27:54.676Z,98800.45
2023-01-29T18:30:56.412Z,98800.67
2023-01-29T18:33:57.971Z,98794.25
2023-01-29T18:36:59.612Z,98789.77
2023-01-29T18:40:01.140Z,98795.40
2023-01-29T18:43:03.607Z,98799.02
2023-01-29T18:46:06.158Z,98795.56
2023-01-29T18:49:08.072Z,98796.45
2023-01-29T18:52:09.516Z,98792.40
2023-01-29T18:55:11.023Z,98800.52
2023-01-29T18:58:26.558Z,98802.65
2023-01-29T19:01:33.848Z,98796.23
2023-01-29T19:04:35.472Z,98785.86
2023-01-29T19:07:37.090Z,98775.73
2023-01-29T19:10:40.048Z,98767.23
2023-01-29T19:13:45.026Z,98759.23
2023-01-29T19:16:46.644Z,98760.72
2023-01-29T19:19:48.854Z,98755.98
2023-01-29T19:22:50.405Z,98757.16
2023-01-29T19:25:51.916Z,98757.30
2023-01-29T19:28:53.425Z,98754.69
2023-01-29T19:31:54.895Z,98751.30
2023-01-29T19:34:57.199Z,98744.66
2023-01-29T19:37:59.341Z,98750.27
2023-01-29T19:41:00.886Z,98755.17
2023-01-29T19:44:02.457Z,98749.20
2023-01-29T19:47:04.244Z,98740.58
2023-01-29T19:50:07.224Z,98739.52
2023-01-29T19:53:09.263Z,98737.48
2023-01-29T19:56:14.769Z,98742.77
2023-01-29T19:59:16.157Z,98754.50
2023-01-29T20:02:17.668Z,98762.10
2023-01-29T20:05:19.864Z,98775.96
2023-01-29T20:08:23.141Z,98784.96
2023-01-29T20:11:24.663Z,98782.96
2023-01-29T20:14:26.142Z,98789.17
2023-01-29T20:17:27.499Z,98789.13
2023-01-29T20:20:32.684Z,98786.26
2023-01-29T20:23:38.011Z,98790.91
2023-01-29T20:26:40.173Z,98788.52
2023-01-29T20:29:42.991Z,98791.96
2023-01-29T20:32:44.404Z,98789.48
2023-01-29T20:35:52.954Z,98793.14
2023-01-29T20:38:54.501Z,98792.55
2023-01-29T20:41:56.624Z,98789.64
2023-01-29T20:44:58.080Z,98787.88
2023-01-29T20:47:59.546Z,98786.23
2023-01-29T20:51:07.405Z,98786.14
2023-01-29T20:54:09.335Z,98786.20
2023-01-29T20:57:10.818Z,98786.79
2023-01-29T21:00:14.158Z,98794.01
2023-01-29T21:03:15.546Z,98787.16
2023-01-29T21:06:16.913Z,98785.35
2023-01-29T21:09:19.283Z,98782.98
2023-01-29T21:12:20.667Z,98783.89
2023-01-29T21:15:22.823Z,98786.67
2023-01-29T21:18:27.681Z,98789.19
2023-01-29T21:21:29.103Z,98789.74
2023-01-29T21:24:30.505Z,98787.36
2023-01-29T21:27:31.943Z,98784.75
2023-01-29T21:30:33.750Z,98781.60
2023-01-29T21:33:35.820Z,98774.39
2023-01-29T21:36:37.330Z,98782.02
2023-01-29T21:39:39.031Z,98780.20
2023-01-29T21:43:00.199Z,98786.11
2023-01-29T21:46:04.320Z,98790.99
2023-01-29T21:49:05.846Z,98786.42
2023-01-29T21:52:10.417Z,98788.01
2023-01-29T21:55:11.779Z,98790.23
2023-01-29T21:58:14.550Z,98786.34
2023-01-29T22:01:36.358Z,98783.80
2023-01-29T22:04:37.763Z,98776.58
2023-01-29T22:07:39.131Z,98770.08
2023-01-29T22:10:40.990Z,98768.48
2023-01-29T22:13:42.523Z,98757.82
2023-01-29T22:16:44.959Z,98753.76
2023-01-29T22:19:46.802Z,98748.08
2023-01-29T22:22:48.279Z,98746.21
2023-01-29T22:25:49.640Z,98740.27
2023-01-29T22:28:51.036Z,98736.77
2023-01-29T22:31:52.443Z,98730.52
2023-01-29T22:34:54.016Z,98723.59
2023-01-29T22:37:55.358Z,98722.85
2023-01-29T22:40:59.695Z,98721.48
2023-01-29T22:44:01.078Z,98722.87
2023-01-29T22:47:02.559Z,98728.70
2023-01-29T22:50:05.597Z,98725.88
2023-01-29T22:53:13.801Z,98724.79
2023-01-29T22:56:15.941Z,98725.08
2023-01-29T22:59:17.364Z,98719.54
2023-01-29T23:02:18.734Z,98712.81
2023-01-29T23:05:20.398Z,98704.21
2023-01-29T23:08:21.821Z,98698.67
2023-01-29T23:11:23.295Z,98693.96
2023-01-29T23:14:24.776Z,98693.48
2023-01-29T23:17:26.202Z,98689.33
2023-01-29T23:20:27.645Z,98685.61
2023-01-29T23:23:29.678Z,98676.05
2023-01-29T23:26:49.933Z,98672.80
2023-01-29T23:29:51.356Z,98665.89
2023-01-29T23:32:52.707Z,98659.38
2023-01-29T23:35:54.109Z,98658.73
2023-01-29T23:38:55.474Z,98656.52
2023-01-29T23:41:56.842Z,98656.06
2023-01-29T23:44:58.153Z,98648.78
2023-01-29T23:47:59.541Z,98648.86
2023-01-29T23:51:01.212Z,98649.58
2023-01-29T23:54:03.373Z,98651.02
2023-01-29T23:57:04.780Z,98655.57
